Beverly Hills, CA

4:57 PM PST on December 17, 2014 (GMT -0800)
Cahuenga Pass | Change Station
CLOSE
Current Station
Personal Weather Station
Location: Los Angeles, CA
Elevation: 850 ft
Nearby Weather Stations

Elev 850 ft 34.13 °N, 118.35 °W | Updated 2 minutes ago

Mostly Cloudy
Mostly Cloudy
54.6 °F
Feels Like 54.6 °F
N
0.0
Wind Variable Wind from WNW
Gusts 0.0 mph

Today
High -- | Low -- °F
--% Chance of Precip.
Yesterday
High -- | Low -- °F
Precip. -- in
6:53 AM 4:46 PM
Waning Crescent, 18% visible
Pressure 30.06 in
Visibility 10.0 miles
Clouds Mostly Cloudy 11000 ft
Dew Point 47 °F
Humidity 75%
Rainfall 0.03 in
Snow Depth Not available.
UV 0 out of 12
Pollen .90 out of 12
Air Quality Not available.
Flu Activity Not available.
METAR KSMO 180051Z 00000KT 10SM BKN110 16/07 A3007 RMK AO2 SLP180 T01610067

More Conditions Fewer Conditions

Pressure 30.06 in
Visibility 10.0 miles
Clouds Mostly Cloudy 11000 ft
Dew Point 47 °F
Humidity 75%
Rainfall 0.03 in
Snow Depth Not available.
UV 0 out of 12
Pollen .90 out of 12
Air Quality Not available.
Flu Activity Not available.
METAR KSMO 180051Z 00000KT 10SM BKN110 16/07 A3007 RMK AO2 SLP180 T01610067

More Conditions Fewer Conditions

10-Day Weather Forecast

Almanac

Astronomy

Dec. 17, 2014 Rise Set
Actual Time
Civil Twilight
Nautical Twilight
Astronomical Twilight
Moon
Length of Visible Light
Length of Day
Tomorrow will be .
, % of the Moon is Illuminated

Today's Extremes

State Highs State Lows

Community

WunderPhotos

Upload Photos

1,778,837 photos uploaded!

WunderBlogs® & News

Nearby

Air Quality

  Air Quality AQ Index Pollutant
Not available.

Snow Depth

Station Depth Elevation

Earthquake Activity

City Distance Mag. Time & Date
Minimum magnitude displayed is 2.5.

Coastal Water Temperatures

Place Temperature

Nearby Weather Stations